Time;durP1;ratioP1;P1;durP2;ratioP2;P2;SDS_P1;SDS_P2;PMS_P1;PMS_P2;Temp;Humidity;BMP_temperature;BMP_pressure;BME280_temperature;BME280_humidity;BME280_pressure;Samples;Min_cycle;Max_cycle;Signal;HPM_P1;HPM_P2
2022/03/08 00:00:16;;;;;;;23.13;12.43;;;;;;;5.49;59.50;100770.03;4996608;28;20105;-82
2022/03/08 00:02:41;;;;;;;26.13;11.45;;;;;;;5.52;59.73;100771.66;4996319;28;20061;-83
2022/03/08 00:05:07;;;;;;;19.05;10.88;;;;;;;5.49;59.87;100758.50;4996467;28;20057;-82
2022/03/08 00:07:33;;;;;;;16.70;10.43;;;;;;;5.63;59.66;100771.00;4996513;28;20038;-83
2022/03/08 00:09:58;;;;;;;17.00;10.93;;;;;;;5.61;59.34;100770.25;4996837;28;20037;-83
2022/03/08 00:12:24;;;;;;;15.98;11.15;;;;;;;5.56;59.40;100759.88;4995261;28;20781;-82
2022/03/08 00:14:49;;;;;;;15.80;10.40;;;;;;;5.38;59.74;100734.28;4996197;28;20085;-82
2022/03/08 00:17:15;;;;;;;21.60;10.43;;;;;;;5.58;59.67;100762.41;4996014;28;20050;-82
2022/03/08 00:19:43;;;;;;;24.23;13.90;;;;;;;5.42;59.69;100744.66;4996161;28;20543;-84
2022/03/08 00:22:09;;;;;;;20.63;12.25;;;;;;;5.32;59.78;100738.13;4994920;28;20157;-82
2022/03/08 00:24:34;;;;;;;21.48;11.45;;;;;;;5.34;59.85;100744.25;4996030;28;20066;-82
2022/03/08 00:27:00;;;;;;;19.67;11.35;;;;;;;5.54;59.87;100776.88;4995958;28;20120;-82
2022/03/08 00:29:25;;;;;;;29.73;11.98;;;;;;;5.50;60.14;100774.38;4995597;28;20031;-83
2022/03/08 00:31:51;;;;;;;19.02;11.55;;;;;;;5.36;59.77;100752.16;4994617;28;20095;-81
2022/03/08 00:34:16;;;;;;;19.70;12.27;;;;;;;5.41;60.00;100753.59;4996117;28;20031;-81
2022/03/08 00:36:42;;;;;;;28.52;12.55;;;;;;;5.36;59.88;100745.00;4994627;28;20058;-82
2022/03/08 00:39:08;;;;;;;22.77;12.70;;;;;;;5.17;60.09;100730.19;4996218;28;20030;-83
2022/03/08 00:41:33;;;;;;;19.20;12.32;;;;;;;5.12;60.60;100753.56;4994786;28;20073;-82
2022/03/08 00:43:59;;;;;;;20.40;11.77;;;;;;;5.00;60.51;100744.47;4995080;28;20054;-83
2022/03/08 00:46:24;;;;;;;22.73;12.57;;;;;;;5.03;60.78;100746.94;4995347;28;20046;-82
2022/03/08 00:48:50;;;;;;;19.73;11.95;;;;;;;5.20;60.72;100778.00;4994392;28;20045;-82
2022/03/08 00:51:16;;;;;;;19.00;13.07;;;;;;;4.89;61.49;100753.03;4995423;28;20042;-83
2022/03/08 00:53:42;;;;;;;21.27;12.25;;;;;;;4.79;61.50;100741.19;4994403;28;20038;-83
2022/03/08 00:56:07;;;;;;;21.35;13.50;;;;;;;4.56;61.84;100722.09;4996161;28;20457;-81
2022/03/08 00:58:34;;;;;;;23.50;13.73;;;;;;;4.49;62.23;100712.72;4995874;28;20084;-83
2022/03/08 01:00:59;;;;;;;19.40;12.55;;;;;;;4.39;63.22;100739.88;4995885;28;20553;-82
2022/03/08 01:03:25;;;;;;;25.63;12.48;;;;;;;4.33;63.54;100737.53;4995934;28;20101;-82
2022/03/08 01:05:50;;;;;;;20.23;13.82;;;;;;;4.06;64.54;100759.44;4995215;28;20045;-82
2022/03/08 01:08:16;;;;;;;22.25;14.30;;;;;;;4.04;64.70;100740.88;4994728;28;20091;-82
2022/03/08 01:10:41;;;;;;;23.88;13.75;;;;;;;4.00;65.02;100749.97;4995235;28;20449;-83
2022/03/08 01:13:07;;;;;;;27.27;15.13;;;;;;;4.01;65.17;100738.38;4995430;28;20024;-82
2022/03/08 01:15:33;;;;;;;22.38;15.13;;;;;;;3.93;65.65;100743.25;4995201;28;20412;-82
2022/03/08 01:17:59;;;;;;;25.73;15.95;;;;;;;3.76;65.98;100757.41;4995459;28;20034;-84
2022/03/08 01:20:25;;;;;;;23.00;15.63;;;;;;;3.72;66.48;100744.34;4994088;28;20038;-84
2022/03/08 01:22:51;;;;;;;25.23;16.13;;;;;;;3.81;66.74;100749.19;4994142;28;20512;-82
2022/03/08 01:25:18;;;;;;;23.77;15.15;;;;;;;3.82;66.13;100753.59;4995617;28;20163;-82
2022/03/08 01:27:44;;;;;;;24.67;15.43;;;;;;;3.56;66.57;100728.31;4996550;28;20030;-81
2022/03/08 01:30:12;;;;;;;24.63;16.10;;;;;;;3.67;67.08;100767.69;5000472;28;20547;-81
2022/03/08 01:32:38;;;;;;;24.67;14.85;;;;;;;3.61;67.17;100746.69;4995723;28;20022;-82
2022/03/08 01:35:05;;;;;;;25.95;15.70;;;;;;;3.34;67.40;100716.19;4995166;28;20031;-81
2022/03/08 01:37:30;;;;;;;29.38;15.75;;;;;;;3.34;67.57;100722.38;4994751;28;20053;-82
2022/03/08 01:39:56;;;;;;;23.63;15.75;;;;;;;3.30;67.59;100719.00;4994964;28;20030;-81
2022/03/08 01:42:23;;;;;;;26.73;16.33;;;;;;;3.25;67.78;100709.53;4994701;28;20045;-82
2022/03/08 01:44:50;;;;;;;24.90;15.10;;;;;;;3.23;67.92;100712.28;4994428;28;20036;-83
2022/03/08 01:47:22;;;;;;;29.23;17.90;;;;;;;3.19;68.75;100731.97;4994278;28;20404;-82
2022/03/08 01:49:50;;;;;;;23.05;15.77;;;;;;;3.16;68.61;100734.78;4994253;28;20126;-82
2022/03/08 01:52:17;;;;;;;27.95;15.88;;;;;;;3.11;68.83;100727.97;4992588;28;20054;-83
2022/03/08 01:54:43;;;;;;;23.88;16.65;;;;;;;3.20;69.01;100757.63;4992914;28;20026;-82
2022/03/08 01:57:12;;;;;;;28.65;17.38;;;;;;;3.22;69.17;100755.72;4992975;28;20084;-81
2022/03/08 01:59:37;;;;;;;54.35;19.83;;;;;;;3.24;69.46;100759.16;4992397;28;20061;-82
2022/03/08 02:02:04;;;;;;;29.20;17.90;;;;;;;3.23;69.32;100748.63;4993754;28;20453;-81
2022/03/08 02:04:29;;;;;;;35.22;17.85;;;;;;;3.26;69.61;100730.72;4992292;28;20492;-81
2022/03/08 02:06:55;;;;;;;32.72;17.27;;;;;;;3.38;69.36;100747.00;4994406;28;20026;-81
2022/03/08 02:09:21;;;;;;;30.10;18.08;;;;;;;3.45;68.98;100759.06;4994005;28;20535;-81
2022/03/08 02:11:47;;;;;;;30.83;18.35;;;;;;;3.22;68.91;100734.47;4992443;28;20030;-82
2022/03/08 02:14:17;;;;;;;34.13;19.60;;;;;;;3.11;69.48;100731.50;4993858;28;20257;-82
2022/03/08 02:16:43;;;;;;;31.80;19.63;;;;;;;3.20;69.78;100744.31;4994184;28;20030;-82
2022/03/08 02:19:12;;;;;;;42.15;20.38;;;;;;;3.24;69.76;100759.16;4993147;28;20054;-82
2022/03/08 02:21:39;;;;;;;33.30;20.10;;;;;;;3.01;70.12;100719.59;4992768;28;20026;-82
2022/03/08 02:24:05;;;;;;;31.08;18.70;;;;;;;3.13;70.32;100736.72;4994648;28;20022;-82
2022/03/08 02:26:33;;;;;;;30.10;19.65;;;;;;;2.92;70.76;100735.09;4993820;28;20516;-81
2022/03/08 02:29:00;;;;;;;35.83;19.77;;;;;;;3.02;71.08;100739.91;4993241;28;20394;-82
2022/03/08 02:31:26;;;;;;;38.33;20.92;;;;;;;3.10;70.62;100734.22;4994038;28;20471;-81
2022/03/08 02:33:52;;;;;;;33.00;19.45;;;;;;;3.07;70.73;100748.50;4993213;28;20109;-82
2022/03/08 02:36:17;;;;;;;37.20;20.88;;;;;;;3.11;70.95;100760.72;4994737;28;20026;-82
2022/03/08 02:38:43;;;;;;;34.78;22.38;;;;;;;3.02;70.78;100747.88;4994565;28;20029;-82
2022/03/08 02:41:09;;;;;;;41.22;23.17;;;;;;;3.10;70.60;100745.69;4992083;28;20026;-82
2022/03/08 02:43:34;;;;;;;38.63;21.88;;;;;;;3.20;70.96;100778.88;4993960;28;20065;-82
2022/03/08 02:46:00;;;;;;;46.05;23.83;;;;;;;2.90;71.21;100753.78;4993617;28;20026;-82
2022/03/08 02:48:27;;;;;;;35.78;22.75;;;;;;;2.87;71.91;100753.94;4993338;28;20033;-82
2022/03/08 02:50:53;;;;;;;40.13;23.42;;;;;;;2.92;71.57;100751.03;4992198;28;20054;-82
2022/03/08 02:53:19;;;;;;;42.80;24.55;;;;;;;3.00;71.97;100763.00;4993468;28;20023;-82
2022/03/08 02:55:44;;;;;;;43.55;23.33;;;;;;;3.02;71.57;100757.66;4993170;28;20142;-82
2022/03/08 02:58:10;;;;;;;51.72;25.25;;;;;;;2.96;71.75;100780.06;4993537;28;20078;-82
2022/03/08 03:00:36;;;;;;;38.05;23.70;;;;;;;2.71;72.06;100740.53;4993751;28;20038;-82
2022/03/08 03:03:04;;;;;;;41.65;25.08;;;;;;;2.81;72.04;100769.28;4992233;28;20026;-82
2022/03/08 03:05:29;;;;;;;46.33;26.48;;;;;;;2.83;72.39;100781.56;4992223;28;20049;-81
2022/03/08 03:07:55;;;;;;;42.17;24.42;;;;;;;2.93;72.05;100772.22;4994105;28;20775;-81
2022/03/08 03:10:22;;;;;;;41.58;24.17;;;;;;;3.02;71.76;100768.28;4992225;28;20053;-81
2022/03/08 03:12:48;;;;;;;47.33;25.25;;;;;;;2.97;71.50;100760.50;4992161;28;20110;-81
2022/03/08 03:15:15;;;;;;;44.10;24.75;;;;;;;3.11;71.53;100781.13;4992310;28;20038;-82
2022/03/08 03:17:43;;;;;;;45.20;25.85;;;;;;;3.18;71.09;100779.88;4993914;28;20030;-84
2022/03/08 03:20:12;;;;;;;42.60;26.30;;;;;;;3.38;70.85;100793.06;4992425;28;20485;-83
2022/03/08 03:22:38;;;;;;;43.25;25.30;;;;;;;3.20;70.62;100757.63;4993149;28;20030;-82
2022/03/08 03:25:07;;;;;;;45.25;25.15;;;;;;;3.37;70.32;100763.88;4993343;28;20433;-83
2022/03/08 03:27:33;;;;;;;40.28;24.67;;;;;;;3.20;70.10;100768.25;4992359;28;20410;-82
2022/03/08 03:29:59;;;;;;;40.53;23.25;;;;;;;3.15;70.20;100753.47;4993267;28;20034;-81
2022/03/08 03:32:25;;;;;;;40.78;24.80;;;;;;;3.25;70.10;100760.91;4996918;28;20109;-81
2022/03/08 03:34:51;;;;;;;44.70;23.35;;;;;;;3.15;70.19;100754.31;4996252;28;20069;-83
2022/03/08 03:37:17;;;;;;;38.10;24.33;;;;;;;3.25;70.42;100763.56;4997124;28;20038;-82
2022/03/08 03:39:43;;;;;;;50.47;28.00;;;;;;;3.41;70.40;100794.69;4995741;28;20507;-83
2022/03/08 03:42:08;;;;;;;49.83;25.30;;;;;;;3.17;70.27;100768.41;4997115;28;20473;-83
2022/03/08 03:44:34;;;;;;;47.70;26.38;;;;;;;3.29;70.22;100783.75;4995954;28;20027;-83
2022/03/08 03:47:00;;;;;;;41.33;24.17;;;;;;;3.14;70.52;100759.72;4997186;28;20030;-83
2022/03/08 03:49:26;;;;;;;46.95;25.73;;;;;;;3.20;69.85;100754.97;4995994;28;20433;-83
2022/03/08 03:51:53;;;;;;;43.38;24.90;;;;;;;3.24;70.19;100764.47;4997126;28;20055;-81
2022/03/08 03:54:19;;;;;;;43.50;25.63;;;;;;;3.15;70.17;100761.44;4997005;28;20022;-81
2022/03/08 03:56:48;;;;;;;43.65;25.50;;;;;;;3.30;70.14;100768.66;4995394;28;20022;-80
2022/03/08 03:59:14;;;;;;;45.97;26.27;;;;;;;3.31;69.48;100743.78;4996605;28;20089;-81
2022/03/08 04:01:39;;;;;;;43.28;24.55;;;;;;;3.34;69.56;100770.22;4996861;28;20595;-82
2022/03/08 04:04:05;;;;;;;43.10;26.95;;;;;;;3.25;69.29;100760.91;4996060;28;20049;-85
2022/03/08 04:06:34;;;;;;;46.72;25.77;;;;;;;3.05;69.44;100771.66;4995588;28;20057;-83
2022/03/08 04:09:00;;;;;;;47.13;25.77;;;;;;;2.99;70.07;100781.69;4995531;28;20030;-82
2022/03/08 04:11:26;;;;;;;45.28;25.70;;;;;;;3.21;70.31;100807.16;4995646;28;20113;-82
2022/03/08 04:13:51;;;;;;;40.13;24.95;;;;;;;3.04;69.66;100772.56;4995180;28;20109;-82
2022/03/08 04:16:17;;;;;;;43.08;24.60;;;;;;;3.29;69.87;100794.38;4996735;28;20037;-82
2022/03/08 04:18:43;;;;;;;42.70;25.77;;;;;;;3.15;70.22;100796.81;4994811;28;20084;-82
2022/03/08 04:21:09;;;;;;;45.97;25.33;;;;;;;3.00;70.40;100770.97;4996559;28;20026;-82
2022/03/08 04:23:34;;;;;;;40.90;24.90;;;;;;;3.16;70.04;100782.59;4995089;28;20027;-82
2022/03/08 04:26:00;;;;;;;41.58;24.15;;;;;;;3.19;69.56;100790.44;4994940;28;20498;-83
2022/03/08 04:28:26;;;;;;;42.15;24.95;;;;;;;3.19;69.27;100776.28;4996122;28;20049;-83
2022/03/08 04:30:51;;;;;;;40.00;25.45;;;;;;;3.39;69.06;100805.41;4996253;28;20038;-83
2022/03/08 04:33:17;;;;;;;44.00;25.73;;;;;;;3.31;68.59;100775.69;4996011;28;20053;-82
2022/03/08 04:35:43;;;;;;;48.72;25.92;;;;;;;3.46;68.67;100800.63;4995698;28;20034;-82
2022/03/08 04:38:11;;;;;;;60.33;25.95;;;;;;;3.29;68.47;100789.06;4994672;28;20061;-82
2022/03/08 04:40:39;;;;;;;42.90;24.58;;;;;;;3.23;68.41;100784.03;4995531;28;20030;-83
2022/03/08 04:43:05;;;;;;;43.75;26.30;;;;;;;3.42;68.89;100821.22;4997894;28;20026;-82
2022/03/08 04:45:31;;;;;;;43.53;26.00;;;;;;;3.72;68.99;100837.44;5000734;28;20485;-82
2022/03/08 04:47:56;;;;;;;50.05;27.80;;;;;;;3.71;68.76;100822.41;4995174;28;20037;-82
2022/03/08 04:50:22;;;;;;;46.40;27.70;;;;;;;3.91;68.22;100840.91;4993783;28;20062;-83
2022/03/08 04:52:49;;;;;;;90.45;27.80;;;;;;;4.04;67.92;100831.34;4994348;28;20027;-81
2022/03/08 04:55:18;;;;;;;63.75;31.60;;;;;;;3.73;67.66;100781.50;4993578;28;20034;-82
2022/03/08 04:57:44;;;;;;;44.25;25.90;;;;;;;3.68;68.53;100788.88;4995743;28;20030;-83
2022/03/08 05:00:12;;;;;;;53.13;27.75;;;;;;;3.74;68.10;100774.38;4994508;28;20085;-83
2022/03/08 05:02:40;;;;;;;44.67;28.10;;;;;;;3.79;68.30;100793.66;4994591;28;20109;-84
2022/03/08 05:05:08;;;;;;;56.42;30.58;;;;;;;3.68;68.60;100777.34;4993674;28;20130;-84
2022/03/08 05:07:38;;;;;;;44.65;26.98;;;;;;;3.58;69.14;100768.97;4993771;28;20393;-82
2022/03/08 05:10:08;;;;;;;48.05;27.48;;;;;;;3.73;68.71;100791.31;4993069;28;20135;-81
2022/03/08 05:12:35;;;;;;;49.75;26.50;;;;;;;3.86;68.81;100781.75;4994817;28;20054;-84
2022/03/08 05:15:01;;;;;;;51.28;28.70;;;;;;;3.71;68.84;100769.22;4995683;28;20066;-82
2022/03/08 05:17:27;;;;;;;63.83;28.70;;;;;;;3.99;69.02;100806.78;5000293;28;20041;-81
2022/03/08 05:19:52;;;;;;;56.75;29.60;;;;;;;3.81;69.03;100776.66;4996859;28;20037;-82
2022/03/08 05:22:18;;;;;;;63.03;31.52;;;;;;;3.80;68.83;100758.13;4993883;28;20033;-83
2022/03/08 05:24:44;;;;;;;54.67;29.15;;;;;;;3.86;68.59;100768.44;4996026;28;20073;-83
2022/03/08 05:27:10;;;;;;;65.15;29.85;;;;;;;3.87;69.18;100767.50;4993504;28;20074;-82
2022/03/08 05:29:36;;;;;;;60.40;30.70;;;;;;;3.77;69.08;100766.25;4993631;28;20030;-82
2022/03/08 05:32:02;;;;;;;79.15;31.27;;;;;;;3.92;69.29;100796.53;4994572;28;20030;-82
2022/03/08 05:34:28;;;;;;;85.43;30.00;;;;;;;3.72;69.64;100761.19;4993437;28;20042;-82
2022/03/08 05:36:53;;;;;;;68.43;30.25;;;;;;;4.06;69.19;100791.38;4994264;28;20369;-80
2022/03/08 05:39:19;;;;;;;82.82;30.08;;;;;;;4.11;68.65;100782.19;4996517;28;20473;-83
2022/03/08 05:41:44;;;;;;;53.35;27.63;;;;;;;4.13;68.73;100782.97;4995381;28;20030;-86
2022/03/08 05:44:10;;;;;;;49.70;29.92;;;;;;;4.04;68.62;100758.63;4995755;28;20516;-81
2022/03/08 05:46:36;;;;;;;65.82;30.60;;;;;;;4.08;68.62;100786.81;4993541;28;20033;-78
2022/03/08 05:49:02;;;;;;;55.30;31.40;;;;;;;4.16;68.55;100782.81;4993326;28;20069;-81
2022/03/08 05:51:28;;;;;;;64.35;29.33;;;;;;;4.28;68.35;100776.00;4993655;28;20081;-81
2022/03/08 05:53:53;;;;;;;52.97;28.85;;;;;;;4.34;67.95;100768.50;4994181;28;20457;-81
2022/03/08 05:56:19;;;;;;;73.18;31.77;;;;;;;4.46;67.66;100784.78;4994004;28;20121;-81
2022/03/08 05:58:45;;;;;;;60.20;29.10;;;;;;;4.46;67.23;100774.16;4993580;28;20026;-81
2022/03/08 06:01:11;;;;;;;51.38;31.17;;;;;;;4.44;67.44;100779.53;4993831;28;20041;-81
2022/03/08 06:03:37;;;;;;;71.38;33.67;;;;;;;4.40;67.44;100786.81;4991415;28;20022;-81
2022/03/08 06:06:05;;;;;;;55.45;31.25;;;;;;;4.48;67.54;100777.56;4992576;28;20033;-82
2022/03/08 06:08:30;;;;;;;64.68;31.60;;;;;;;4.72;67.68;100800.22;4993419;28;20109;-81
2022/03/08 06:10:56;;;;;;;65.35;31.38;;;;;;;4.73;67.69;100792.16;4992305;28;20429;-81
2022/03/08 06:13:22;;;;;;;90.50;32.13;;;;;;;4.99;67.30;100809.34;4993454;28;20025;-84
2022/03/08 06:15:47;;;;;;;58.15;28.73;;;;;;;4.85;66.19;100795.94;4993528;28;20057;-82
2022/03/08 06:18:13;;;;;;;52.80;29.23;;;;;;;4.75;65.75;100779.59;4994250;28;20038;-82
2022/03/08 06:20:39;;;;;;;52.47;29.45;;;;;;;4.64;65.86;100790.00;4994281;28;20034;-82
2022/03/08 06:23:04;;;;;;;66.22;30.15;;;;;;;4.87;66.20;100823.34;5003986;28;20029;-82
2022/03/08 06:25:30;;;;;;;63.25;28.73;;;;;;;4.67;65.92;100807.59;4991774;28;20037;-83
2022/03/08 06:27:55;;;;;;;60.97;28.23;;;;;;;4.53;65.85;100802.16;4993917;28;20041;-81
2022/03/08 06:30:21;;;;;;;59.28;29.38;;;;;;;4.37;66.31;100808.28;4992022;28;20042;-82
2022/03/08 06:32:47;;;;;;;54.58;30.48;;;;;;;4.42;66.44;100817.84;4992196;28;20026;-83
2022/03/08 06:35:13;;;;;;;53.80;27.27;;;;;;;4.42;67.01;100815.19;4992168;28;20034;-82
2022/03/08 06:37:39;;;;;;;52.25;28.50;;;;;;;4.50;67.18;100829.81;4992795;28;20062;-83
2022/03/08 06:40:06;;;;;;;62.38;28.25;;;;;;;4.44;66.81;100813.28;4992754;28;20050;-81
2022/03/08 06:42:31;;;;;;;46.60;27.13;;;;;;;4.42;66.46;100800.06;4993856;28;20481;-81
2022/03/08 06:44:57;;;;;;;50.50;26.52;;;;;;;4.48;65.93;100823.72;4991872;28;20030;-83
2022/03/08 06:47:22;;;;;;;57.65;29.08;;;;;;;4.49;66.23;100796.16;4992634;28;20030;-83
2022/03/08 06:49:48;;;;;;;87.03;29.85;;;;;;;4.75;66.02;100832.88;4993529;28;20034;-83
2022/03/08 06:52:14;;;;;;;45.58;25.67;;;;;;;4.68;65.74;100793.34;4992934;28;20124;-82
2022/03/08 06:54:40;;;;;;;50.13;27.85;;;;;;;4.66;65.23;100790.75;4991484;28;20037;-82
2022/03/08 06:57:06;;;;;;;109.00;34.05;;;;;;;4.92;65.72;100826.66;4993962;28;20037;-84
2022/03/08 06:59:32;;;;;;;66.60;29.60;;;;;;;5.02;65.35;100835.84;4991574;28;20113;-82
2022/03/08 07:01:57;;;;;;;59.38;30.23;;;;;;;5.23;65.60;100826.66;4993151;28;20022;-81
2022/03/08 07:04:24;;;;;;;60.10;25.88;;;;;;;5.46;64.67;100850.22;4992775;28;20031;-83
2022/03/08 07:06:50;;;;;;;46.47;25.35;;;;;;;5.32;63.45;100812.78;4994973;28;20433;-82
2022/03/08 07:09:15;;;;;;;66.28;30.67;;;;;;;5.50;63.11;100809.06;4996974;28;20030;-82
2022/03/08 07:11:42;;;;;;;53.63;27.33;;;;;;;5.70;62.05;100826.59;4996275;28;20051;-83
2022/03/08 07:14:08;;;;;;;44.35;24.25;;;;;;;5.73;62.31;100814.88;4996203;28;20028;-83
2022/03/08 07:16:34;;;;;;;43.92;24.80;;;;;;;5.74;61.69;100805.94;4998732;28;20111;-83
2022/03/08 07:19:00;;;;;;;54.55;24.75;;;;;;;5.95;61.39;100831.41;4997531;28;20080;-82
2022/03/08 07:21:26;;;;;;;50.08;25.25;;;;;;;5.99;61.43;100816.94;4995367;28;20069;-83
2022/03/08 07:23:52;;;;;;;41.83;23.75;;;;;;;5.99;60.53;100823.09;4994828;28;20137;-82
2022/03/08 07:26:18;;;;;;;42.95;23.42;;;;;;;5.97;60.15;100816.13;4995074;28;20026;-82
2022/03/08 07:28:44;;;;;;;55.85;27.15;;;;;;;6.01;59.81;100823.91;4995520;28;20122;-82
2022/03/08 07:31:12;;;;;;;48.05;23.25;;;;;;;6.06;59.25;100822.75;4994755;28;20536;-81
2022/03/08 07:33:37;;;;;;;69.32;25.27;;;;;;;6.17;59.51;100821.16;4996150;28;20041;-81
2022/03/08 07:36:03;;;;;;;64.07;25.65;;;;;;;6.23;59.19;100819.94;4994648;28;20030;-82
2022/03/08 07:38:29;;;;;;;51.35;23.55;;;;;;;6.50;58.59;100851.19;4996040;28;20440;-82
2022/03/08 07:40:54;;;;;;;35.88;21.80;;;;;;;6.28;57.60;100816.03;4996617;28;20041;-82
2022/03/08 07:43:20;;;;;;;53.08;23.42;;;;;;;6.18;57.86;100825.53;4996435;28;20436;-81
2022/03/08 07:45:46;;;;;;;43.40;23.20;;;;;;;6.25;57.89;100829.56;4995196;28;20089;-83
2022/03/08 07:48:11;;;;;;;35.65;20.92;;;;;;;6.27;57.39;100822.31;4996002;28;20429;-82
2022/03/08 07:50:37;;;;;;;44.63;23.10;;;;;;;6.22;57.47;100808.38;4994033;28;20030;-84
2022/03/08 07:53:04;;;;;;;44.97;19.83;;;;;;;6.14;55.33;100805.34;4996073;28;20030;-83
2022/03/08 07:55:29;;;;;;;46.15;21.40;;;;;;;6.15;55.61;100801.69;4994047;28;20049;-83
2022/03/08 07:57:56;;;;;;;38.40;21.13;;;;;;;6.30;55.56;100816.78;4996068;28;20030;-81
2022/03/08 08:00:23;;;;;;;46.15;20.60;;;;;;;6.27;56.34;100811.63;4996779;28;20026;-82
2022/03/08 08:02:48;;;;;;;50.17;22.48;;;;;;;6.30;56.23;100808.78;4996286;28;20015;-81
2022/03/08 08:05:14;;;;;;;36.30;17.95;;;;;;;6.47;54.30;100819.31;4996695;28;20053;-81
2022/03/08 08:07:39;;;;;;;39.35;18.80;;;;;;;6.42;54.01;100804.53;4994802;28;20073;-81
2022/03/08 08:10:06;;;;;;;36.25;18.85;;;;;;;6.27;53.75;100797.44;4993776;28;20050;-82
2022/03/08 08:12:32;;;;;;;34.15;20.13;;;;;;;6.41;54.12;100830.38;4995367;28;20403;-82
2022/03/08 08:14:57;;;;;;;29.92;17.42;;;;;;;6.39;53.56;100810.03;4993700;28;20481;-83
2022/03/08 08:17:23;;;;;;;30.08;17.58;;;;;;;6.54;53.82;100819.78;4993893;28;20046;-83
2022/03/08 08:19:48;;;;;;;39.78;19.33;;;;;;;6.79;54.04;100835.16;4995207;28;20030;-82
2022/03/08 08:22:14;;;;;;;37.85;20.23;;;;;;;6.94;53.37;100826.19;4994896;28;20077;-80
2022/03/08 08:24:39;;;;;;;31.63;19.40;;;;;;;7.13;52.71;100802.63;4994856;28;20378;-81
2022/03/08 08:27:05;;;;;;;41.13;18.02;;;;;;;7.02;52.32;100789.97;4995309;28;20030;-82
2022/03/08 08:29:30;;;;;;;40.25;19.35;;;;;;;7.24;51.72;100821.53;4993856;28;20476;-82
2022/03/08 08:31:56;;;;;;;40.05;18.77;;;;;;;7.25;51.72;100811.72;4994761;28;20026;-82
2022/03/08 08:34:21;;;;;;;34.83;18.20;;;;;;;7.32;51.18;100808.53;4994487;28;20030;-83
2022/03/08 08:36:47;;;;;;;43.22;20.38;;;;;;;7.47;51.22;100801.31;4994806;28;20101;-82
2022/03/08 08:39:16;;;;;;;33.47;19.27;;;;;;;7.47;50.68;100780.75;4994921;28;20026;-82
2022/03/08 08:41:42;;;;;;;44.25;20.50;;;;;;;7.79;50.70;100807.22;4993678;28;20056;-81
2022/03/08 08:44:08;;;;;;;31.38;19.30;;;;;;;8.00;50.67;100827.19;4994643;28;20053;-83
2022/03/08 08:46:33;;;;;;;28.77;17.70;;;;;;;7.93;49.61;100785.69;4994681;28;20062;-83
2022/03/08 08:48:59;;;;;;;32.85;17.25;;;;;;;8.11;49.07;100804.06;4994551;28;20022;-82
2022/03/08 08:51:24;;;;;;;37.40;17.73;;;;;;;8.10;47.88;100820.25;4995020;28;20050;-81
2022/03/08 08:53:50;;;;;;;29.48;17.08;;;;;;;7.87;48.84;100794.16;4993384;28;20034;-81
2022/03/08 08:56:16;;;;;;;28.25;16.08;;;;;;;7.92;48.36;100818.81;4993002;28;20109;-82
2022/03/08 08:58:41;;;;;;;44.42;16.40;;;;;;;7.80;48.62;100792.88;4994371;28;20026;-82
2022/03/08 09:01:07;;;;;;;38.25;19.45;;;;;;;7.66;48.49;100770.56;4993248;28;20033;-83
2022/03/08 09:03:33;;;;;;;34.90;18.00;;;;;;;7.91;48.05;100799.22;4994530;28;20061;-81
2022/03/08 09:05:59;;;;;;;43.78;17.80;;;;;;;7.80;48.50;100771.44;4995308;28;20033;-82
2022/03/08 09:08:24;;;;;;;36.28;18.38;;;;;;;7.82;48.62;100774.88;4994668;28;20509;-81
2022/03/08 09:10:52;;;;;;;34.13;19.38;;;;;;;8.07;48.85;100801.72;4993649;28;20030;-81
2022/03/08 09:13:17;;;;;;;30.63;17.85;;;;;;;7.98;48.20;100767.53;4994575;28;20033;-82
2022/03/08 09:15:43;;;;;;;29.27;17.67;;;;;;;8.16;48.40;100775.13;4996215;28;20022;-84
2022/03/08 09:18:09;;;;;;;54.90;20.90;;;;;;;8.46;48.44;100798.13;4994994;28;20105;-83
2022/03/08 09:20:35;;;;;;;49.60;19.25;;;;;;;8.55;47.78;100790.31;4996364;28;20046;-83
2022/03/08 09:23:01;;;;;;;34.30;18.92;;;;;;;8.64;47.34;100773.56;4994374;28;20165;-82
2022/03/08 09:25:27;;;;;;;98.22;23.85;;;;;;;8.78;47.38;100794.00;4993294;28;20492;-82
2022/03/08 09:27:53;;;;;;;30.55;17.13;;;;;;;8.89;46.73;100822.75;4995361;28;20105;-82
2022/03/08 09:30:19;;;;;;;49.25;17.02;;;;;;;8.71;47.35;100777.50;4995151;28;20030;-83
2022/03/08 09:32:45;;;;;;;41.15;17.92;;;;;;;8.69;46.62;100792.84;4994254;28;20026;-83
2022/03/08 09:35:10;;;;;;;43.78;18.17;;;;;;;8.48;46.77;100799.72;4994710;28;20038;-83
2022/03/08 09:37:36;;;;;;;36.72;18.65;;;;;;;8.51;47.58;100820.97;4994280;28;20053;-81
2022/03/08 09:40:03;;;;;;;60.97;20.90;;;;;;;8.24;46.98;100814.78;4995684;28;20034;-84
2022/03/08 09:42:30;;;;;;;32.97;18.27;;;;;;;8.10;47.35;100775.53;4994720;28;20026;-81
2022/03/08 09:44:57;;;;;;;32.10;18.60;;;;;;;8.09;47.53;100771.16;4994764;28;20022;-83
2022/03/08 09:47:23;;;;;;;36.65;17.15;;;;;;;8.24;47.35;100796.03;4992575;28;20129;-83
2022/03/08 09:49:49;;;;;;;34.13;17.17;;;;;;;8.43;47.59;100809.91;4993159;28;20030;-82
2022/03/08 09:52:15;;;;;;;31.90;17.27;;;;;;;8.32;46.93;100780.31;4992141;28;20038;-82
2022/03/08 09:54:43;;;;;;;28.73;16.40;;;;;;;8.41;46.68;100785.03;4993380;28;20026;-81
2022/03/08 09:57:11;;;;;;;32.20;15.50;;;;;;;8.65;45.47;100804.75;4993134;28;20499;-82
2022/03/08 09:59:36;;;;;;;22.45;12.70;;;;;;;8.56;43.17;100810.75;4993622;28;20508;-82
2022/03/08 10:02:02;;;;;;;32.30;14.57;;;;;;;8.35;43.82;100785.47;4993175;28;20046;-82
2022/03/08 10:04:28;;;;;;;22.98;13.18;;;;;;;8.20;43.20;100759.69;4992195;28;20152;-83
2022/03/08 10:06:53;;;;;;;25.63;13.88;;;;;;;8.30;43.79;100774.22;4992048;28;20121;-83
2022/03/08 10:09:21;;;;;;;36.38;15.57;;;;;;;8.52;43.72;100781.63;4993846;28;20022;-84
2022/03/08 10:11:52;;;;;;;48.58;16.40;;;;;;;8.72;43.89;100792.63;4991893;28;20027;-81
2022/03/08 10:14:39;;;;;;;42.58;15.50;;;;;;;8.99;43.51;100803.19;4991857;28;20124;-83
2022/03/08 10:17:28;;;;;;;40.70;16.92;;;;;;;9.01;43.35;100768.25;4992878;28;20026;-82
2022/03/08 10:19:54;;;;;;;26.98;13.80;;;;;;;9.09;42.98;100769.38;4992605;28;20346;-82
2022/03/08 10:22:28;;;;;;;26.40;13.70;;;;;;;9.38;42.68;100775.31;4992751;28;20022;-82
2022/03/08 10:25:22;;;;;;;38.55;14.48;;;;;;;9.70;42.56;100773.75;4990826;28;20034;-83
2022/03/08 10:27:54;;;;;;;29.15;12.80;;;;;;;9.81;41.36;100789.91;4992418;28;20030;-82
2022/03/08 10:30:21;;;;;;;26.33;13.40;;;;;;;9.93;41.41;100785.44;4992088;28;20393;-83
2022/03/08 10:32:47;;;;;;;40.55;14.05;;;;;;;9.78;41.25;100755.22;4991846;28;20018;-82
2022/03/08 10:35:24;;;;;;;39.13;15.35;;;;;;;9.60;40.94;100759.28;4990692;28;20099;-81
2022/03/08 10:37:51;;;;;;;22.77;13.32;;;;;;;9.68;40.64;100738.09;4992037;28;20031;-82
2022/03/08 10:40:34;;;;;;;31.30;14.05;;;;;;;9.88;41.02;100749.16;4973834;28;20057;-83
2022/03/08 10:43:03;;;;;;;18.10;11.65;;;;;;;9.80;40.75;100737.16;4992110;28;20042;-82
2022/03/08 10:45:29;;;;;;;28.50;12.60;;;;;;;9.94;40.61;100751.38;4990855;28;20511;-82
2022/03/08 10:47:55;;;;;;;26.48;12.88;;;;;;;10.03;40.16;100780.22;4992256;28;20029;-82
2022/03/08 10:50:41;;;;;;;26.42;12.88;;;;;;;9.69;40.88;100766.66;4991937;28;20366;-83
2022/03/08 10:53:08;;;;;;;33.88;13.40;;;;;;;9.62;41.17;100743.94;4991800;28;20046;-82
2022/03/08 10:55:43;;;;;;;33.42;14.93;;;;;;;9.68;41.84;100756.03;4990560;28;20030;-83
2022/03/08 10:58:12;;;;;;;32.83;14.88;;;;;;;9.80;42.49;100779.28;4993461;28;20030;-83
2022/03/08 11:00:39;;;;;;;26.92;14.13;;;;;;;9.68;42.86;100783.75;4992716;28;20033;-82
2022/03/08 11:03:15;;;;;;;28.92;16.05;;;;;;;9.31;42.59;100747.19;4993219;28;20026;-82
2022/03/08 11:05:43;;;;;;;23.55;14.13;;;;;;;9.40;43.16;100776.03;4991900;28;20030;-83
2022/03/08 11:08:10;;;;;;;46.42;15.48;;;;;;;9.24;43.42;100759.34;4992136;28;20572;-83
2022/03/08 11:10:36;;;;;;;28.00;15.45;;;;;;;9.29;43.76;100784.03;5002179;28;20102;-82
2022/03/08 11:13:04;;;;;;;53.15;17.42;;;;;;;9.37;44.04;100780.78;4993794;28;20029;-81